Time;durP1;ratioP1;P1;durP2;ratioP2;P2;SDS_P1;SDS_P2;PMS_P1;PMS_P2;Temp;Humidity;BMP_temperature;BMP_pressure;BME280_temperature;BME280_humidity;BME280_pressure;Samples;Min_cycle;Max_cycle;Signal;HPM_P1;HPM_P2
2023/04/12 00:02:22;;;;;;;11.17;6.57;;;9.10;99.90;;;;;;5073001;28;20220;-78
2023/04/12 00:04:54;;;;;;;9.73;6.10;;;9.10;99.90;;;;;;5071340;28;20239;-78
2023/04/12 00:07:22;;;;;;;7.77;5.43;;;9.10;99.90;;;;;;5072762;28;20197;-79
2023/04/12 00:09:49;;;;;;;9.47;6.27;;;9.10;99.90;;;;;;5072503;28;20288;-81
2023/04/12 00:12:18;;;;;;;8.77;5.87;;;9.10;99.90;;;;;;5078402;28;20204;-79
2023/04/12 00:14:45;;;;;;;8.03;5.70;;;9.10;99.90;;;;;;5092851;28;20296;-80
2023/04/12 00:17:12;;;;;;;9.60;5.43;;;9.10;99.90;;;;;;5092931;28;20288;-80
2023/04/12 00:19:40;;;;;;;10.87;4.80;;;9.10;99.90;;;;;;5079846;28;20204;-79
2023/04/12 00:22:08;;;;;;;9.90;4.53;;;9.10;99.90;;;;;;5072900;28;20205;-79
2023/04/12 00:24:39;;;;;;;7.13;4.03;;;9.10;99.90;;;;;;5072339;28;20221;-80
2023/04/12 00:27:06;;;;;;;8.37;4.47;;;9.00;99.90;;;;;;5071936;28;20193;-80
2023/04/12 00:29:33;;;;;;;9.30;4.13;;;9.00;99.90;;;;;;5072406;28;20295;-80
2023/04/12 00:32:02;;;;;;;9.20;4.40;;;9.00;99.90;;;;;;5072694;28;21908;-80
2023/04/12 00:34:29;;;;;;;12.50;4.77;;;9.00;99.90;;;;;;5071754;28;20201;-80
2023/04/12 00:36:56;;;;;;;11.63;4.63;;;8.90;99.90;;;;;;5072091;28;20232;-80
2023/04/12 00:39:23;;;;;;;6.37;4.37;;;9.00;99.90;;;;;;5072443;28;20629;-79
2023/04/12 00:41:51;;;;;;;8.27;5.07;;;9.00;99.90;;;;;;5071455;28;20473;-80
2023/04/12 00:44:18;;;;;;;9.00;4.50;;;9.00;99.90;;;;;;5072253;28;20549;-79
2023/04/12 00:46:45;;;;;;;8.47;4.20;;;9.00;99.90;;;;;;5072574;28;20241;-79
2023/04/12 00:49:12;;;;;;;9.00;4.90;;;9.00;99.90;;;;;;5077871;28;20250;-80
2023/04/12 00:51:40;;;;;;;8.47;4.10;;;9.00;99.90;;;;;;5092379;28;20299;-79
2023/04/12 00:54:07;;;;;;;8.27;4.30;;;9.00;99.90;;;;;;5091912;28;20307;-80
2023/04/12 00:56:35;;;;;;;9.30;5.13;;;9.00;99.90;;;;;;5092377;28;20340;-79
2023/04/12 00:59:04;;;;;;;8.97;4.70;;;9.00;99.90;;;;;;5075473;28;20237;-79
2023/04/12 01:01:31;;;;;;;10.03;4.40;;;9.00;99.90;;;;;;5071322;28;20197;-79
2023/04/12 01:04:03;;;;;;;8.57;4.50;;;9.00;99.90;;;;;;5071840;28;20820;-79
2023/04/12 01:06:45;;;;;;;9.27;4.43;;;8.90;99.90;;;;;;5072192;28;20216;-79
2023/04/12 01:09:22;;;;;;;10.87;3.93;;;8.90;99.90;;;;;;5070784;28;20190;-78
2023/04/12 01:11:56;;;;;;;8.23;4.00;;;8.90;99.90;;;;;;5071683;28;20236;-79
2023/04/12 01:14:44;;;;;;;8.73;4.50;;;8.90;99.90;;;;;;5072569;28;20197;-79
2023/04/12 01:17:19;;;;;;;8.50;4.07;;;8.90;99.90;;;;;;5075463;28;20198;-79
2023/04/12 01:19:57;;;;;;;14.10;5.40;;;8.90;99.90;;;;;;5075414;28;20228;-79
2023/04/12 01:22:38;;;;;;;7.10;4.73;;;8.90;99.90;;;;;;5075358;28;20284;-79
2023/04/12 01:25:22;;;;;;;7.10;4.20;;;8.90;99.90;;;;;;5076244;28;20313;-79
2023/04/12 01:27:55;;;;;;;8.87;4.97;;;8.80;99.90;;;;;;5075372;28;20193;-78
2023/04/12 01:30:26;;;;;;;7.57;4.53;;;8.90;99.90;;;;;;5074954;28;20194;-79
2023/04/12 01:32:56;;;;;;;7.80;4.50;;;8.90;99.90;;;;;;5075854;28;20280;-79
2023/04/12 01:35:26;;;;;;;8.17;5.20;;;8.90;99.90;;;;;;5075283;28;20204;-79
2023/04/12 01:37:53;;;;;;;7.10;4.30;;;8.90;99.90;;;;;;5074366;28;20312;-78
2023/04/12 01:40:21;;;;;;;8.57;4.33;;;8.90;99.90;;;;;;5075312;28;20205;-79
2023/04/12 01:42:47;;;;;;;6.83;4.33;;;8.90;99.90;;;;;;5074851;28;20240;-80
2023/04/12 01:45:16;;;;;;;7.27;4.30;;;8.90;99.90;;;;;;5074250;28;20213;-79
2023/04/12 01:47:43;;;;;;;7.20;4.10;;;8.80;99.90;;;;;;5074749;28;20205;-79
2023/04/12 01:50:18;;;;;;;7.30;4.67;;;8.90;99.90;;;;;;5074608;28;20201;-78
2023/04/12 01:52:53;;;;;;;6.47;3.90;;;8.80;99.90;;;;;;5075227;28;20216;-78
2023/04/12 01:55:21;;;;;;;7.57;3.90;;;8.90;99.90;;;;;;5075278;28;20215;-79
2023/04/12 01:57:50;;;;;;;5.37;3.23;;;8.90;99.90;;;;;;5079662;28;20203;-80
2023/04/12 02:00:20;;;;;;;9.27;3.97;;;8.90;99.90;;;;;;5095226;28;20622;-79
2023/04/12 02:02:47;;;;;;;6.03;3.20;;;8.90;99.90;;;;;;5095442;28;20596;-78
2023/04/12 02:05:15;;;;;;;8.73;3.43;;;8.90;99.90;;;;;;5079924;28;20315;-78
2023/04/12 02:07:43;;;;;;;5.43;3.57;;;8.80;99.90;;;;;;5074576;28;20208;-79
2023/04/12 02:10:14;;;;;;;7.00;3.30;;;8.80;99.90;;;;;;5075108;28;20261;-79
2023/04/12 02:12:41;;;;;;;6.67;2.77;;;8.80;99.90;;;;;;5074115;28;20197;-79
2023/04/12 02:15:09;;;;;;;5.83;3.10;;;8.80;99.90;;;;;;5074745;28;20208;-80
2023/04/12 02:17:37;;;;;;;5.43;3.13;;;8.80;99.90;;;;;;5074335;28;20292;-79
2023/04/12 02:20:08;;;;;;;4.33;2.87;;;8.80;99.90;;;;;;5074176;28;20205;-79
2023/04/12 02:22:35;;;;;;;8.27;2.93;;;8.70;99.90;;;;;;5074832;28;20483;-79
2023/04/12 02:25:03;;;;;;;8.20;2.70;;;8.70;99.90;;;;;;5074567;28;20213;-79
2023/04/12 02:27:30;;;;;;;5.40;2.80;;;8.70;99.90;;;;;;5073586;28;20207;-78
2023/04/12 02:29:58;;;;;;;4.17;2.63;;;8.70;99.90;;;;;;5074205;28;20196;-77
2023/04/12 02:32:25;;;;;;;4.90;2.60;;;8.70;99.90;;;;;;5074093;28;20202;-79
2023/04/12 02:34:53;;;;;;;4.80;3.40;;;8.70;99.90;;;;;;5074266;28;20208;-79
2023/04/12 02:37:23;;;;;;;5.07;2.70;;;8.70;99.90;;;;;;5074270;28;20189;-79
2023/04/12 02:39:50;;;;;;;5.23;2.77;;;8.70;99.90;;;;;;5073594;28;20201;-79
2023/04/12 02:42:16;;;;;;;6.00;2.50;;;8.70;99.90;;;;;;5074003;28;20207;-80
2023/04/12 02:44:46;;;;;;;8.27;2.60;;;8.70;99.90;;;;;;5073890;28;20253;-78
2023/04/12 02:47:13;;;;;;;6.73;2.83;;;8.70;99.90;;;;;;5073487;28;20224;-78
2023/04/12 02:49:40;;;;;;;4.37;2.60;;;8.70;99.90;;;;;;5073789;28;20613;-79
2023/04/12 02:52:09;;;;;;;4.33;2.87;;;8.70;99.90;;;;;;5073980;28;20284;-78
2023/04/12 02:54:36;;;;;;;4.23;3.50;;;8.70;99.90;;;;;;5073197;28;20271;-79
2023/04/12 02:57:03;;;;;;;4.33;2.40;;;8.70;99.90;;;;;;5073983;28;20280;-79
2023/04/12 02:59:30;;;;;;;6.47;2.90;;;8.60;99.90;;;;;;5089473;27;20244;-78
2023/04/12 03:01:57;;;;;;;4.07;2.20;;;8.70;99.90;;;;;;5113996;28;20283;-80
2023/04/12 03:04:28;;;;;;;6.83;2.97;;;8.70;99.90;;;;;;5114422;28;20302;-79
2023/04/12 03:06:55;;;;;;;4.40;2.43;;;8.70;99.90;;;;;;5113924;27;20241;-80
2023/04/12 03:09:24;;;;;;;5.10;3.53;;;8.70;99.90;;;;;;5113765;28;20206;-80
2023/04/12 03:11:51;;;;;;;5.93;2.60;;;8.70;99.90;;;;;;5114328;27;20588;-79
2023/04/12 03:14:18;;;;;;;7.33;2.80;;;8.70;99.90;;;;;;5114302;28;20224;-80
2023/04/12 03:16:44;;;;;;;7.07;2.80;;;8.70;99.90;;;;;;5117585;27;20203;-79
2023/04/12 03:19:13;;;;;;;4.50;3.10;;;8.70;99.90;;;;;;5120819;27;20200;-79
2023/04/12 03:21:39;;;;;;;7.23;3.20;;;8.70;99.90;;;;;;5113296;28;20211;-79
2023/04/12 03:24:07;;;;;;;5.77;3.50;;;8.70;99.90;;;;;;5114097;28;20960;-79
2023/04/12 03:26:35;;;;;;;7.20;3.17;;;8.70;99.90;;;;;;5114262;28;20192;-79
2023/04/12 03:29:06;;;;;;;6.23;3.13;;;8.70;99.90;;;;;;5123801;27;20231;-79
2023/04/12 03:31:33;;;;;;;8.27;3.43;;;8.70;99.90;;;;;;5134320;27;20248;-79
2023/04/12 03:34:00;;;;;;;4.60;2.60;;;8.70;99.90;;;;;;5134441;27;20195;-80
2023/04/12 03:36:28;;;;;;;7.20;2.77;;;8.70;99.90;;;;;;5118609;27;20276;-79
2023/04/12 03:38:55;;;;;;;6.27;2.80;;;8.70;99.90;;;;;;5112676;28;20663;-79
2023/04/12 03:41:23;;;;;;;5.60;2.80;;;8.70;99.90;;;;;;5113523;27;20656;-79
2023/04/12 03:43:51;;;;;;;4.43;2.40;;;8.70;99.90;;;;;;5112918;28;20249;-80
2023/04/12 03:46:18;;;;;;;6.03;3.37;;;8.70;99.90;;;;;;5113912;27;20315;-79
2023/04/12 03:48:45;;;;;;;3.70;2.80;;;8.70;99.90;;;;;;5113289;28;20241;-79
2023/04/12 03:51:12;;;;;;;4.67;2.70;;;8.70;99.90;;;;;;5132956;27;20238;-79
2023/04/12 03:53:39;;;;;;;3.97;2.90;;;8.70;99.90;;;;;;5134058;27;20218;-80
2023/04/12 03:56:07;;;;;;;3.57;2.73;;;8.70;99.90;;;;;;5134045;27;20194;-79
2023/04/12 03:58:34;;;;;;;3.97;2.60;;;8.80;99.90;;;;;;5128757;27;20234;-79
2023/04/12 04:01:04;;;;;;;5.47;3.40;;;8.80;99.90;;;;;;5112735;27;20710;-80
2023/04/12 04:03:33;;;;;;;5.87;3.53;;;8.80;99.90;;;;;;5113105;28;20230;-79
2023/04/12 04:06:00;;;;;;;4.70;3.00;;;8.80;99.90;;;;;;5112872;28;20246;-79
2023/04/12 04:08:27;;;;;;;4.67;3.00;;;8.80;99.90;;;;;;5112788;28;20202;-79
2023/04/12 04:10:54;;;;;;;4.73;2.93;;;8.80;99.90;;;;;;5112205;27;20227;-79
2023/04/12 04:13:21;;;;;;;4.03;2.37;;;8.80;99.90;;;;;;5113055;28;20494;-79
2023/04/12 04:15:56;;;;;;;3.37;2.80;;;8.80;99.90;;;;;;5112735;28;21066;-79
2023/04/12 04:18:24;;;;;;;5.73;2.67;;;8.80;99.90;;;;;;5112299;28;20601;-79
2023/04/12 04:20:51;;;;;;;2.73;2.40;;;8.80;99.90;;;;;;5112579;28;20203;-79
2023/04/12 04:23:18;;;;;;;2.93;2.60;;;8.90;99.90;;;;;;5112810;28;20566;-79
2023/04/12 04:25:45;;;;;;;3.93;2.60;;;8.80;99.90;;;;;;5111854;28;20501;-79
2023/04/12 04:28:14;;;;;;;3.37;2.80;;;8.90;99.90;;;;;;5112560;28;20497;-79
2023/04/12 04:30:44;;;;;;;3.93;2.60;;;8.90;99.90;;;;;;5112547;28;20196;-79
2023/04/12 04:33:12;;;;;;;3.43;2.60;;;8.90;99.90;;;;;;5112102;28;20620;-79
2023/04/12 04:35:41;;;;;;;4.10;2.63;;;8.90;99.90;;;;;;5112454;28;20655;-78
2023/04/12 04:38:09;;;;;;;3.63;2.40;;;8.90;99.90;;;;;;5112245;28;20647;-79
2023/04/12 04:40:38;;;;;;;4.20;3.10;;;8.90;99.90;;;;;;5112048;28;20502;-79
2023/04/12 04:43:05;;;;;;;3.17;2.47;;;8.90;99.90;;;;;;5112793;28;20231;-79
2023/04/12 04:45:32;;;;;;;3.43;2.97;;;9.00;99.90;;;;;;5112539;28;20306;-79
2023/04/12 04:48:00;;;;;;;3.40;3.00;;;8.90;99.90;;;;;;5111947;28;20267;-79
2023/04/12 04:50:26;;;;;;;4.20;2.90;;;9.00;99.90;;;;;;5111963;28;20490;-79
2023/04/12 04:52:55;;;;;;;4.03;3.10;;;9.00;99.90;;;;;;5112678;28;20346;-80
2023/04/12 04:55:23;;;;;;;5.70;3.10;;;9.00;99.90;;;;;;5112627;27;20306;-81
2023/04/12 04:57:50;;;;;;;4.63;3.03;;;9.00;99.90;;;;;;5112651;28;20287;-80
2023/04/12 05:00:20;;;;;;;3.83;3.43;;;9.10;99.90;;;;;;5111656;28;20232;-81
2023/04/12 05:02:47;;;;;;;4.73;3.53;;;9.10;99.90;;;;;;5112626;28;20199;-80
2023/04/12 05:05:14;;;;;;;6.13;3.60;;;9.10;99.90;;;;;;5111799;28;20307;-80
2023/04/12 05:07:42;;;;;;;3.83;3.53;;;9.10;99.90;;;;;;5111440;28;20231;-79
2023/04/12 05:10:11;;;;;;;4.60;3.50;;;9.10;99.90;;;;;;5112341;28;20250;-80
2023/04/12 05:12:38;;;;;;;4.43;3.50;;;9.10;99.90;;;;;;5112507;28;20231;-80
2023/04/12 05:15:06;;;;;;;4.23;3.87;;;9.10;99.90;;;;;;5111455;28;20200;-78
2023/04/12 05:17:33;;;;;;;5.83;4.03;;;9.10;99.90;;;;;;5132252;28;20235;-82
2023/04/12 05:20:00;;;;;;;4.30;3.57;;;9.10;99.90;;;;;;5123783;28;20204;-80
2023/04/12 05:22:28;;;;;;;8.27;4.40;;;9.10;99.90;;;;;;5111386;28;20204;-79
2023/04/12 05:24:55;;;;;;;6.73;4.37;;;9.20;99.90;;;;;;5112635;28;20246;-79
2023/04/12 05:27:25;;;;;;;4.60;3.97;;;9.20;99.90;;;;;;5112085;28;20235;-79
2023/04/12 05:29:52;;;;;;;9.57;4.93;;;9.20;99.90;;;;;;5111267;28;20207;-80
2023/04/12 05:32:19;;;;;;;7.70;5.40;;;9.30;99.90;;;;;;5131310;28;20191;-79
2023/04/12 05:34:45;;;;;;;8.17;4.40;;;9.30;99.90;;;;;;5126861;28;20230;-81
2023/04/12 05:37:13;;;;;;;7.77;5.70;;;9.30;99.90;;;;;;5132028;28;20195;-79
2023/04/12 05:39:40;;;;;;;11.80;5.63;;;9.30;99.90;;;;;;5117172;28;20227;-80
2023/04/12 05:42:07;;;;;;;15.73;5.70;;;9.30;99.90;;;;;;5111728;28;20192;-80
2023/04/12 05:44:36;;;;;;;14.50;5.13;;;9.40;99.90;;;;;;5111474;28;20783;-78
2023/04/12 05:47:03;;;;;;;15.57;5.23;;;9.40;99.90;;;;;;5118631;28;20204;-79
2023/04/12 05:49:30;;;;;;;24.17;5.77;;;9.50;99.90;;;;;;5131622;28;20286;-80
2023/04/12 05:51:57;;;;;;;18.33;4.83;;;9.40;99.90;;;;;;5123188;28;20192;-80
2023/04/12 05:54:24;;;;;;;15.43;5.63;;;9.50;99.90;;;;;;5112290;28;20206;-80
2023/04/12 05:56:51;;;;;;;20.77;5.90;;;9.50;99.90;;;;;;5111313;28;20444;-80
2023/04/12 05:59:18;;;;;;;17.97;4.87;;;9.50;99.90;;;;;;5111966;28;20238;-82
2023/04/12 06:01:47;;;;;;;18.23;4.90;;;9.60;99.90;;;;;;5113540;28;20503;-81
2023/04/12 06:04:14;;;;;;;15.40;4.60;;;9.60;99.90;;;;;;5114888;27;20235;-80
2023/04/12 06:06:42;;;;;;;20.23;5.93;;;9.60;99.90;;;;;;5115552;28;20667;-80
2023/04/12 06:09:10;;;;;;;22.17;6.60;;;9.60;99.90;;;;;;5115275;28;20196;-82
2023/04/12 06:11:38;;;;;;;21.17;4.67;;;9.60;99.90;;;;;;5115450;28;20203;-80
2023/04/12 06:14:05;;;;;;;20.47;5.23;;;9.60;99.90;;;;;;5135713;27;20195;-80
2023/04/12 06:16:31;;;;;;;24.07;5.13;;;9.60;99.90;;;;;;5136130;27;20199;-81
2023/04/12 06:19:00;;;;;;;19.10;4.50;;;9.60;99.90;;;;;;5135582;27;20234;-83
2023/04/12 06:21:27;;;;;;;19.77;4.63;;;9.50;99.90;;;;;;5135565;27;20222;-80
2023/04/12 06:23:54;;;;;;;21.40;5.00;;;9.50;99.90;;;;;;5116112;27;20195;-80
2023/04/12 06:26:21;;;;;;;25.57;4.80;;;9.50;99.90;;;;;;5135765;27;20521;-81
2023/04/12 06:28:48;;;;;;;27.07;4.30;;;9.50;99.90;;;;;;5135499;27;20677;-80
2023/04/12 06:31:16;;;;;;;26.57;4.67;;;9.40;99.90;;;;;;5127994;27;20198;-79
2023/04/12 06:33:42;;;;;;;30.70;5.07;;;9.40;99.90;;;;;;5114671;28;20204;-80
2023/04/12 06:36:11;;;;;;;19.07;4.17;;;9.40;99.90;;;;;;5114662;28;20192;-80
2023/04/12 06:38:38;;;;;;;25.87;5.03;;;9.40;99.90;;;;;;5113624;28;20219;-80
2023/04/12 06:41:06;;;;;;;27.00;5.67;;;9.40;99.90;;;;;;5114131;27;20261;-81
2023/04/12 06:43:33;;;;;;;28.00;5.83;;;9.40;99.90;;;;;;5113949;28;20271;-79
2023/04/12 06:46:01;;;;;;;23.77;5.50;;;9.40;99.90;;;;;;5114447;28;20323;-81
2023/04/12 06:48:28;;;;;;;23.80;4.67;;;9.40;99.90;;;;;;5114220;27;20509;-80
2023/04/12 06:50:55;;;;;;;19.97;3.93;;;9.40;99.90;;;;;;5113562;28;20583;-80
2023/04/12 06:53:24;;;;;;;22.40;4.50;;;9.40;99.90;;;;;;5114282;28;20196;-81
2023/04/12 06:55:52;;;;;;;23.03;5.13;;;9.50;99.90;;;;;;5114637;27;20204;-80
2023/04/12 06:58:19;;;;;;;29.23;6.47;;;9.40;99.90;;;;;;5114439;28;20523;-80
2023/04/12 07:00:46;;;;;;;28.10;5.13;;;9.50;99.90;;;;;;5113676;28;20235;-81
2023/04/12 07:03:13;;;;;;;24.57;4.83;;;9.60;99.90;;;;;;5114874;27;20200;-81
2023/04/12 07:05:40;;;;;;;20.77;5.20;;;9.80;99.90;;;;;;5114529;28;20216;-80
2023/04/12 07:08:08;;;;;;;25.00;4.40;;;9.80;99.90;;;;;;5113537;28;20215;-81
2023/04/12 07:10:37;;;;;;;18.03;4.43;;;9.90;99.90;;;;;;5113767;27;20588;-81
2023/04/12 07:13:07;;;;;;;25.10;4.40;;;9.90;99.90;;;;;;5113752;28;20195;-81
2023/04/12 07:15:34;;;;;;;23.40;4.70;;;9.90;99.90;;;;;;5113520;28;20188;-81
2023/04/12 07:18:00;;;;;;;21.47;4.33;;;9.90;99.90;;;;;;5114824;27;20208;-79
2023/04/12 07:20:27;;;;;;;32.77;7.67;;;9.90;99.90;;;;;;5114302;28;20615;-80
2023/04/12 07:22:55;;;;;;;27.67;5.60;;;10.00;99.90;;;;;;5113181;27;20196;-81
2023/04/12 07:25:21;;;;;;;28.03;4.47;;;10.10;99.90;;;;;;5134508;27;20287;-79
2023/04/12 07:27:50;;;;;;;23.30;5.53;;;10.20;99.90;;;;;;5132731;27;20209;-80
2023/04/12 07:30:17;;;;;;;24.97;5.70;;;10.40;99.90;;;;;;5133075;27;20207;-79
2023/04/12 07:32:44;;;;;;;19.13;5.20;;;10.50;99.90;;;;;;5134388;27;20230;-80
2023/04/12 07:35:11;;;;;;;21.93;4.10;;;10.70;99.90;;;;;;5129353;27;20274;-79
2023/04/12 07:37:38;;;;;;;24.10;5.77;;;10.90;99.90;;;;;;5134779;27;20209;-79
2023/04/12 07:40:06;;;;;;;27.33;5.37;;;11.10;99.90;;;;;;5132489;27;20214;-78
2023/04/12 07:42:33;;;;;;;19.17;4.90;;;11.20;99.90;;;;;;5144914;27;20261;-82
2023/04/12 07:45:01;;;;;;;21.07;4.23;;;11.30;99.90;;;;;;5134243;27;20290;-81
2023/04/12 07:47:28;;;;;;;21.87;4.73;;;11.50;99.90;;;;;;5138845;27;20650;-82
2023/04/12 07:49:56;;;;;;;24.27;4.80;;;11.50;99.90;;;;;;5134288;27;20194;-79
2023/04/12 07:52:23;;;;;;;17.00;4.77;;;11.50;99.90;;;;;;5126595;27;20286;-83
2023/04/12 07:54:53;;;;;;;21.27;5.33;;;11.50;99.90;;;;;;5135826;27;20251;-81
2023/04/12 07:57:22;;;;;;;16.60;4.00;;;11.50;99.90;;;;;;5133949;27;20248;-81
2023/04/12 07:59:49;;;;;;;14.00;3.70;;;11.50;99.90;;;;;;5115395;27;20314;-80
2023/04/12 08:02:23;;;;;;;17.00;3.80;;;11.50;99.90;;;;;;5114112;28;20336;-81
2023/04/12 08:04:50;;;;;;;16.53;3.63;;;11.40;99.90;;;;;;5122024;27;20746;-80
2023/04/12 08:07:17;;;;;;;15.27;4.07;;;11.40;99.90;;;;;;5133857;27;20223;-80
2023/04/12 08:09:44;;;;;;;13.60;3.67;;;11.30;99.90;;;;;;5134214;27;20253;-80
2023/04/12 08:12:11;;;;;;;13.50;3.27;;;11.20;99.90;;;;;;5121439;27;20238;-81
2023/04/12 08:14:38;;;;;;;17.97;3.87;;;11.20;99.90;;;;;;5134182;27;20571;-79
2023/04/12 08:17:05;;;;;;;17.90;3.30;;;11.10;99.90;;;;;;5133699;27;20201;-79
2023/04/12 08:19:33;;;;;;;19.40;3.77;;;11.10;99.90;;;;;;5118377;27;20299;-79
2023/04/12 08:22:01;;;;;;;21.13;4.07;;;11.10;99.90;;;;;;5113669;28;20218;-81
2023/04/12 08:24:28;;;;;;;12.53;3.60;;;11.00;99.90;;;;;;5113377;28;20200;-82
2023/04/12 08:26:55;;;;;;;14.07;3.57;;;11.20;99.90;;;;;;5114562;27;20250;-82
2023/04/12 08:29:21;;;;;;;15.83;4.47;;;11.50;99.90;;;;;;5114425;28;20237;-80
2023/04/12 08:31:49;;;;;;;13.30;3.27;;;11.70;99.90;;;;;;5114988;27;20208;-79
2023/04/12 08:34:15;;;;;;;10.03;3.37;;;11.90;99.90;;;;;;5137277;27;20912;-82
2023/04/12 08:36:44;;;;;;;17.70;2.67;;;12.20;99.90;;;;;;5120684;27;20223;-83
2023/04/12 08:39:10;;;;;;;14.87;3.73;;;12.50;99.90;;;;;;5112812;28;20688;-80
2023/04/12 08:41:39;;;;;;;12.43;4.13;;;12.70;99.90;;;;;;5113390;28;20614;-81
2023/04/12 08:44:05;;;;;;;15.00;3.33;;;13.00;99.90;;;;;;5113092;28;20235;-80
2023/04/12 08:46:35;;;;;;;10.03;3.50;;;13.30;99.90;;;;;;5112665;28;20247;-79
2023/04/12 08:49:02;;;;;;;11.87;3.37;;;13.30;99.90;;;;;;5113515;28;20277;-79
2023/04/12 08:51:31;;;;;;;14.43;2.93;;;13.40;99.90;;;;;;5110544;28;20279;-81
2023/04/12 08:53:59;;;;;;;8.23;2.20;;;13.20;99.90;;;;;;5131832;27;20237;-79
2023/04/12 08:56:27;;;;;;;15.53;3.27;;;13.20;99.90;;;;;;5120051;28;20218;-79
2023/04/12 08:58:54;;;;;;;10.90;2.80;;;13.10;99.90;;;;;;5128936;27;20213;-79
2023/04/12 09:01:21;;;;;;;9.67;2.67;;;13.00;99.90;;;;;;5129834;27;20207;-79
2023/04/12 09:03:48;;;;;;;7.80;2.43;;;12.90;99.90;;;;;;5130916;27;20203;-80
2023/04/12 09:06:15;;;;;;;10.70;3.13;;;12.90;99.90;;;;;;5131562;28;20261;-79
2023/04/12 09:08:53;;;;;;;12.77;3.53;;;12.90;99.90;;;;;;5116688;28;20223;-78
2023/04/12 09:11:25;;;;;;;9.13;2.90;;;12.90;99.90;;;;;;5112400;28;20211;-80
2023/04/12 09:13:53;;;;;;;11.43;2.87;;;12.90;99.90;;;;;;5130277;28;20195;-78
2023/04/12 09:16:38;;;;;;;11.67;4.60;;;13.00;99.90;;;;;;5132494;28;20256;-80
2023/04/12 09:19:05;;;;;;;15.60;3.10;;;13.00;99.90;;;;;;5125539;28;20243;-80
2023/04/12 09:21:33;;;;;;;12.97;3.40;;;13.10;99.90;;;;;;5111454;28;20203;-81
2023/04/12 09:24:08;;;;;;;11.70;3.13;;;13.20;99.90;;;;;;5110965;28;20260;-80
2023/04/12 09:26:37;;;;;;;10.47;2.57;;;13.20;99.90;;;;;;5111360;28;20555;-81
2023/04/12 09:29:04;;;;;;;12.80;3.27;;;13.20;99.90;;;;;;5110811;28;20257;-79
2023/04/12 09:31:31;;;;;;;18.20;3.03;;;13.30;99.90;;;;;;5110922;28;20225;-82
2023/04/12 09:34:08;;;;;;;11.03;2.67;;;13.30;99.90;;;;;;5111998;28;20545;-80
2023/04/12 09:36:39;;;;;;;11.73;3.03;;;13.30;99.90;;;;;;5114073;28;20230;-81
2023/04/12 09:39:06;;;;;;;12.63;2.83;;;13.40;99.90;;;;;;5136333;27;20234;-78
2023/04/12 09:41:35;;;;;;;12.83;3.07;;;13.50;99.90;;;;;;5136435;27;20187;-80
2023/04/12 09:44:03;;;;;;;10.93;2.67;;;13.40;99.90;;;;;;5137472;27;20218;-83
2023/04/12 09:46:31;;;;;;;15.23;3.30;;;13.40;99.90;;;;;;5117767;27;20231;-80
2023/04/12 09:48:59;;;;;;;15.63;3.57;;;13.30;99.90;;;;;;5115696;28;20275;-80
2023/04/12 09:51:28;;;;;;;12.70;2.80;;;13.40;99.90;;;;;;5115828;28;20200;-80
2023/04/12 09:53:58;;;;;;;13.50;2.73;;;13.40;99.90;;;;;;5128121;27;20210;-81
2023/04/12 09:56:28;;;;;;;12.87;3.23;;;13.50;99.90;;;;;;5136136;27;20199;-80
2023/04/12 09:58:56;;;;;;;12.30;2.73;;;13.60;99.90;;;;;;5135908;27;20253;-80
2023/04/12 10:01:25;;;;;;;13.43;3.67;;;13.60;99.90;;;;;;5118131;27;20600;-80
2023/04/12 10:03:53;;;;;;;15.27;4.00;;;13.80;99.90;;;;;;5115451;28;20246;-80
2023/04/12 10:06:21;;;;;;;13.47;3.10;;;13.90;99.90;;;;;;5115754;28;20263;-81
2023/04/12 10:08:50;;;;;;;15.57;3.67;;;14.10;99.90;;;;;;5115912;28;20215;-82
2023/04/12 10:11:18;;;;;;;14.80;3.63;;;14.20;99.90;;;;;;5115120;27;20663;-80
2023/04/12 10:13:45;;;;;;;9.43;2.77;;;14.20;99.90;;;;;;5115694;28;20198;-80
2023/04/12 10:16:15;;;;;;;12.57;3.23;;;14.20;99.90;;;;;;5115488;28;20235;-79
2023/04/12 10:18:46;;;;;;;14.73;3.03;;;14.30;99.90;;;;;;5117378;27;20200;-81
2023/04/12 10:21:13;;;;;;;14.57;3.50;;;14.40;99.90;;;;;;5136343;27;20191;-80
2023/04/12 10:23:40;;;;;;;17.57;3.77;;;14.60;99.90;;;;;;5136119;27;20219;-80
2023/04/12 10:26:07;;;;;;;15.93;4.30;;;14.60;99.90;;;;;;5122382;27;20207;-81
2023/04/12 10:28:34;;;;;;;14.48;2.97;;;14.60;99.90;;;;;;5115530;28;20292;-78
2023/04/12 10:31:29;;;;;;;16.10;3.42;;;14.50;99.90;;;;;;5124933;27;20207;-79
2023/04/12 10:33:56;;;;;;;15.27;3.92;;;14.40;99.90;;;;;;5135678;27;20213;-79
2023/04/12 10:36:51;;;;;;;12.57;3.88;;;14.50;99.90;;;;;;5120354;27;20211;-82
2023/04/12 10:39:18;;;;;;;12.13;2.85;;;14.50;99.90;;;;;;5114595;28;20339;-79
2023/04/12 10:42:15;;;;;;;14.82;3.67;;;14.50;99.90;;;;;;5115170;28;20199;-79
2023/04/12 10:44:42;;;;;;;14.63;3.45;;;14.50;99.90;;;;;;5114305;28;20629;-79
2023/04/12 10:47:11;;;;;;;14.02;3.20;;;14.50;99.90;;;;;;5114016;28;20487;-79
2023/04/12 10:49:39;;;;;;;12.38;3.90;;;14.50;99.90;;;;;;5114847;28;20533;-79
2023/04/12 10:52:16;;;;;;;12.13;3.30;;;14.60;99.90;;;;;;5113929;28;20204;-79
2023/04/12 10:54:43;;;;;;;10.98;3.15;;;14.80;99.90;;;;;;5115156;28;20286;-81
2023/04/12 10:57:42;;;;;;;10.10;2.92;;;15.00;99.90;;;;;;5125138;27;20199;-80
2023/04/12 11:00:10;;;;;;;20.75;3.97;;;15.20;99.90;;;;;;5134797;27;20237;-81
2023/04/12 11:03:10;;;;;;;14.95;2.95;;;15.40;99.90;;;;;;5135739;27;20622;-82
2023/04/12 11:06:00;;;;;;;12.82;3.17;;;15.40;99.90;;;;;;5125137;27;20192;-83
2023/04/12 11:08:28;;;;;;;9.88;2.88;;;15.50;99.90;;;;;;5115097;28;20212;-82
2023/04/12 11:11:03;;;;;;;11.45;2.88;;;15.60;99.90;;;;;;5114792;27;20671;-81
2023/04/12 11:13:35;;;;;;;13.75;3.28;;;15.80;99.90;;;;;;5113662;28;20256;-81
2023/04/12 11:16:03;;;;;;;13.55;3.08;;;15.80;99.90;;;;;;5114941;28;20181;-82
2023/04/12 11:18:34;;;;;;;9.82;2.47;;;15.80;99.90;;;;;;5114352;27;20295;-81
2023/04/12 11:21:03;;;;;;;11.43;2.90;;;16.00;99.90;;;;;;5114284;28;20184;-82
2023/04/12 11:23:31;;;;;;;10.43;2.83;;;16.00;99.90;;;;;;5114402;28;20599;-82
2023/04/12 11:25:58;;;;;;;8.98;2.40;;;15.90;99.90;;;;;;5116426;27;20635;-81
2023/04/12 11:28:26;;;;;;;13.68;3.17;;;15.80;99.90;;;;;;5134766;27;20572;-83
2023/04/12 11:30:53;;;;;;;11.73;2.95;;;15.80;99.90;;;;;;5126633;27;20769;-82
2023/04/12 11:33:35;;;;;;;12.77;2.92;;;15.50;99.90;;;;;;5115084;28;20219;-84
2023/04/12 11:36:06;;;;;;;10.80;2.85;;;15.40;99.90;;;;;;5114464;27;20208;-82
2023/04/12 11:38:35;;;;;;;14.43;3.25;;;15.20;99.90;;;;;;5114584;28;20208;-81
2023/04/12 11:41:02;;;;;;;14.50;2.92;;;15.00;99.90;;;;;;5114011;28;20557;-81
2023/04/12 11:43:29;;;;;;;16.23;3.60;;;15.00;99.90;;;;;;5113867;28;20280;-81
2023/04/12 11:45:58;;;;;;;14.18;3.28;;;15.00;99.90;;;;;;5124027;27;20277;-80
2023/04/12 11:48:25;;;;;;;8.85;2.55;;;14.90;99.90;;;;;;5132288;27;20227;-80
2023/04/12 11:50:55;;;;;;;10.25;3.72;;;14.90;99.90;;;;;;5113216;28;20206;-84
2023/04/12 11:53:27;;;;;;;11.70;3.08;;;14.90;99.90;;;;;;5113890;28;20199;-80
2023/04/12 11:55:57;;;;;;;12.17;3.00;;;15.00;99.90;;;;;;5112469;27;20196;-80
2023/04/12 11:58:25;;;;;;;12.10;3.05;;;15.10;99.90;;;;;;5128903;27;20199;-78
2023/04/12 12:00:53;;;;;;;12.55;4.00;;;15.20;99.90;;;;;;5132808;27;20234;-78
2023/04/12 12:03:20;;;;;;;16.13;4.87;;;15.10;99.90;;;;;;5130976;27;20195;-76
2023/04/12 12:05:47;;;;;;;17.53;4.30;;;15.00;99.90;;;;;;5123335;27;20239;-78
2023/04/12 12:08:16;;;;;;;15.37;4.00;;;15.00;99.90;;;;;;5113041;28;20224;-79
2023/04/12 12:10:43;;;;;;;17.27;3.85;;;15.00;99.90;;;;;;5112592;28;20275;-79
2023/04/12 12:13:11;;;;;;;15.35;4.45;;;14.90;99.90;;;;;;5113583;27;20231;-79
2023/04/12 12:15:38;;;;;;;15.27;3.88;;;14.70;99.90;;;;;;5112970;28;20204;-80
2023/04/12 12:18:08;;;;;;;12.27;4.30;;;14.70;99.90;;;;;;5112348;28;20286;-80
2023/04/12 12:20:41;;;;;;;21.40;4.28;;;14.70;99.90;;;;;;5113330;27;20282;-80
2023/04/12 12:23:08;;;;;;;11.83;3.43;;;14.60;99.90;;;;;;5112682;28;20290;-78
2023/04/12 12:25:37;;;;;;;11.90;3.20;;;14.60;99.90;;;;;;5113245;28;20283;-79
2023/04/12 12:28:05;;;;;;;13.68;3.42;;;14.60;99.90;;;;;;5112951;28;20311;-79
2023/04/12 12:30:32;;;;;;;15.05;3.00;;;14.50;99.90;;;;;;5112549;28;20204;-78
2023/04/12 12:32:59;;;;;;;14.00;2.97;;;14.40;99.90;;;;;;5112391;28;20203;-80
2023/04/12 12:35:27;;;;;;;17.95;3.50;;;14.30;99.90;;;;;;5112690;28;20210;-79
2023/04/12 12:37:57;;;;;;;15.03;3.53;;;14.20;99.90;;;;;;5112447;28;20215;-80
2023/04/12 12:40:31;;;;;;;16.60;3.43;;;14.20;99.90;;;;;;5113124;27;20196;-79
2023/04/12 12:42:59;;;;;;;15.30;4.23;;;14.10;99.90;;;;;;5112894;28;20238;-79
2023/04/12 12:45:28;;;;;;;18.80;4.10;;;14.00;99.90;;;;;;5112592;28;20629;-78
2023/04/12 12:47:57;;;;;;;11.27;3.87;;;13.90;99.90;;;;;;5113031;27;20234;-79
2023/04/12 12:50:26;;;;;;;10.03;2.57;;;13.80;99.90;;;;;;5112906;28;20210;-81
2023/04/12 12:52:54;;;;;;;14.97;2.40;;;13.70;99.90;;;;;;5126404;27;20581;-79
2023/04/12 12:55:22;;;;;;;10.63;2.30;;;13.50;99.90;;;;;;5133936;27;20611;-80
2023/04/12 12:57:52;;;;;;;11.53;2.53;;;13.40;99.90;;;;;;5128663;27;20596;-79